Strona główna
METAR-TAF:

METAR-TAF

Lotnisko :

Port lotniczy Casablanca-Anfa

Casablanca, Maroko

Szerokość geograficzna: 33-34N, Długość geograficzna: 007-40W, wysokość: 62 m

Aktualna obserwacja pogody

Raport powstał 5 godziny i 49 minut temu, godzina 20:00 UTC
Wiatr 10 kt od północno-północny wschód
Temperatura 22°C
Wilgotność 83%
Ciśnienie 1016 hPa
Widzialność 10 km lub więcej
Mało chmury na wysokości 1600 ft

METAR: GMMC 252000Z 02010KT 9999 FEW016 22/19 Q1016

czas: 02:49 (01:49 UTC)


TAF: brakujący

Obserwacja i prognoza pogody dla ponad 4000 lotnisk (raport METAR i TAF).

Dostępne stacje oznaczono żółtymi i czerwonymi punktami na mapie.

Najedź kursorem aby zobaczyć nazwę stacji.

Kliknij aby zobaczyć obserwacje i prognozy pogody.

Aby zmienić mapę: kliknij na zielony przycisk z czarnym krzyżykiem, aby powiększyć; na zielony przycisk z myślnikiem, aby pomniejszyć; na zielone strzałki, aby przejść do map sąsiednich.


METAR-TAF: